createdAt,value
2023-03-25T00:02:09.477Z,99.90
2023-03-25T00:05:14.970Z,99.90
2023-03-25T00:08:18.387Z,99.90
2023-03-25T00:11:21.791Z,99.90
2023-03-25T00:14:26.431Z,99.90
2023-03-25T00:17:31.158Z,99.90
2023-03-25T00:20:34.371Z,99.90
2023-03-25T00:23:38.154Z,99.90
2023-03-25T00:26:42.695Z,99.90
2023-03-25T00:29:47.804Z,99.90
2023-03-25T00:32:52.859Z,99.90
2023-03-25T00:35:59.463Z,99.90
2023-03-25T00:39:02.833Z,99.90
2023-03-25T00:42:06.334Z,99.90
2023-03-25T00:45:12.285Z,99.90
2023-03-25T00:48:15.469Z,99.90
2023-03-25T00:51:21.822Z,99.90
2023-03-25T00:54:25.765Z,99.90
2023-03-25T00:57:29.061Z,99.90
2023-03-25T01:00:33.723Z,99.90
2023-03-25T01:03:37.420Z,99.90
2023-03-25T01:06:43.899Z,99.90
2023-03-25T01:09:47.616Z,99.90
2023-03-25T01:12:50.812Z,99.90
2023-03-25T01:15:55.444Z,99.90
2023-03-25T01:18:58.691Z,99.90
2023-03-25T01:22:01.931Z,99.90
2023-03-25T01:25:05.618Z,99.90
2023-03-25T01:28:08.870Z,99.90
2023-03-25T01:31:15.965Z,99.90
2023-03-25T01:34:19.330Z,99.90
2023-03-25T01:37:22.776Z,99.90
2023-03-25T01:40:26.119Z,99.90
2023-03-25T01:43:29.279Z,99.90
2023-03-25T01:46:34.302Z,99.90
2023-03-25T01:49:40.850Z,99.90
2023-03-25T01:52:47.687Z,99.90
2023-03-25T01:55:53.144Z,99.90
2023-03-25T01:58:57.517Z,99.90
2023-03-25T02:02:04.824Z,99.90
2023-03-25T02:05:14.166Z,99.90
2023-03-25T02:08:17.870Z,99.90
2023-03-25T02:11:21.305Z,99.90
2023-03-25T02:14:27.216Z,99.90
2023-03-25T02:17:39.979Z,99.90
2023-03-25T02:21:26.737Z,99.90
2023-03-25T02:25:16.144Z,99.90
2023-03-25T02:28:29.341Z,99.90
2023-03-25T02:31:56.598Z,99.90
2023-03-25T02:35:23.010Z,99.90
2023-03-25T02:38:40.576Z,99.90
2023-03-25T02:41:51.332Z,99.90
2023-03-25T02:45:00.844Z,99.90
2023-03-25T02:48:06.582Z,99.90
2023-03-25T02:51:15.969Z,99.90
2023-03-25T02:54:22.989Z,99.90
2023-03-25T02:57:29.715Z,99.90
2023-03-25T03:00:34.526Z,99.90
2023-03-25T03:03:37.852Z,99.90
2023-03-25T03:06:44.558Z,99.90
2023-03-25T03:09:55.989Z,99.90
2023-03-25T03:13:11.243Z,99.90
2023-03-25T03:16:24.903Z,99.90
2023-03-25T03:19:38.943Z,99.90
2023-03-25T03:22:47.097Z,99.90
2023-03-25T03:25:54.700Z,99.90
2023-03-25T03:29:04.713Z,99.90
2023-03-25T03:32:13.364Z,99.90
2023-03-25T03:35:22.202Z,99.90
2023-03-25T03:38:28.434Z,99.90
2023-03-25T03:41:37.081Z,99.90
2023-03-25T03:44:42.643Z,99.90
2023-03-25T03:47:51.023Z,99.90
2023-03-25T03:50:57.931Z,99.90
2023-03-25T03:54:04.100Z,99.90
2023-03-25T03:57:12.284Z,99.90
2023-03-25T04:00:19.232Z,99.90
2023-03-25T04:03:26.015Z,99.90
2023-03-25T04:06:35.548Z,99.90
2023-03-25T04:09:45.015Z,99.90
2023-03-25T04:12:53.169Z,99.90
2023-03-25T04:15:58.463Z,99.90
2023-03-25T04:19:01.679Z,99.90
2023-03-25T04:22:05.904Z,99.90
2023-03-25T04:25:09.550Z,99.90
2023-03-25T04:28:14.179Z,99.90
2023-03-25T04:31:18.469Z,99.90
2023-03-25T04:34:21.719Z,99.90
2023-03-25T04:37:25.610Z,99.90
2023-03-25T04:40:28.801Z,99.90
2023-03-25T04:43:33.586Z,99.90
2023-03-25T04:46:37.891Z,99.90
2023-03-25T04:49:41.485Z,99.90
2023-03-25T04:52:44.660Z,99.90
2023-03-25T04:55:49.843Z,99.90
2023-03-25T04:58:54.504Z,99.90
2023-03-25T05:01:57.955Z,99.90
2023-03-25T05:05:02.331Z,99.90
2023-03-25T05:08:05.806Z,99.90
2023-03-25T05:11:09.184Z,99.90
2023-03-25T05:14:15.805Z,99.90
2023-03-25T05:17:19.151Z,99.90
2023-03-25T05:20:23.342Z,99.90
2023-03-25T05:23:26.524Z,99.90
2023-03-25T05:26:34.344Z,99.90
2023-03-25T05:29:39.055Z,99.90
2023-03-25T05:32:42.225Z,99.90
2023-03-25T05:35:46.819Z,99.90
2023-03-25T05:38:50.052Z,99.90
2023-03-25T05:41:55.810Z,99.90
2023-03-25T05:45:01.750Z,99.90
2023-03-25T05:48:05.468Z,99.90
2023-03-25T05:51:13.776Z,99.90
2023-03-25T05:54:17.368Z,99.90
2023-03-25T05:57:20.594Z,99.90
2023-03-25T06:00:25.324Z,99.90
2023-03-25T06:03:28.523Z,99.90
2023-03-25T06:06:34.338Z,99.90
2023-03-25T06:09:37.753Z,99.90
2023-03-25T06:12:41.050Z,99.90
2023-03-25T06:15:45.685Z,99.90
2023-03-25T06:18:56.387Z,99.90
2023-03-25T06:21:59.642Z,99.90
2023-03-25T06:25:03.980Z,99.90
2023-03-25T06:28:07.280Z,99.90
2023-03-25T06:31:17.034Z,99.90
2023-03-25T06:34:22.047Z,99.90
2023-03-25T06:37:28.384Z,99.90
2023-03-25T06:40:31.692Z,99.90
2023-03-25T06:43:35.058Z,99.90
2023-03-25T06:46:39.695Z,99.90
2023-03-25T06:49:42.946Z,99.90
2023-03-25T06:52:46.146Z,99.90
2023-03-25T06:55:49.541Z,99.90
2023-03-25T06:58:52.893Z,99.90
2023-03-25T07:01:57.502Z,99.90
2023-03-25T07:05:00.778Z,99.90
2023-03-25T07:08:03.962Z,99.90
2023-03-25T07:11:08.690Z,99.90
2023-03-25T07:14:12.002Z,99.90
2023-03-25T07:17:16.508Z,99.90
2023-03-25T07:20:19.769Z,99.90
2023-03-25T07:23:22.946Z,99.90
2023-03-25T07:26:26.153Z,99.90
2023-03-25T07:29:29.339Z,99.90
2023-03-25T07:32:35.135Z,99.90
2023-03-25T07:35:38.394Z,99.90
2023-03-25T07:38:42.113Z,99.90
2023-03-25T07:41:47.354Z,99.90
2023-03-25T07:44:50.488Z,99.90
2023-03-25T07:47:55.301Z,99.90
2023-03-25T07:50:58.635Z,99.90
2023-03-25T07:54:05.315Z,99.90
2023-03-25T07:57:09.689Z,99.90
2023-03-25T08:00:14.307Z,99.90
2023-03-25T08:03:19.078Z,99.90
2023-03-25T08:06:22.447Z,99.90
2023-03-25T08:09:25.950Z,99.90
2023-03-25T08:12:29.159Z,99.90
2023-03-25T08:15:32.334Z,99.90
2023-03-25T08:18:37.106Z,99.90
2023-03-25T08:21:40.510Z,99.90
2023-03-25T08:24:43.732Z,99.90
2023-03-25T08:27:47.045Z,99.90
2023-03-25T08:30:54.959Z,99.90
2023-03-25T08:34:00.664Z,99.90
2023-03-25T08:37:04.488Z,99.90
2023-03-25T08:40:09.964Z,99.90
2023-03-25T08:43:15.016Z,99.90
2023-03-25T08:46:18.198Z,99.90
2023-03-25T08:49:22.860Z,99.90
2023-03-25T08:52:26.390Z,99.90
2023-03-25T08:55:29.566Z,99.90
2023-03-25T08:58:32.756Z,99.90
2023-03-25T09:01:37.057Z,99.90
2023-03-25T09:04:41.705Z,99.90
2023-03-25T09:07:44.873Z,99.90
2023-03-25T09:10:48.215Z,99.90
2023-03-25T09:13:51.459Z,99.90
2023-03-25T09:16:54.696Z,99.90
2023-03-25T09:19:59.264Z,99.90
2023-03-25T09:23:02.504Z,99.90
2023-03-25T09:26:06.328Z,99.90
2023-03-25T09:29:09.618Z,99.90
2023-03-25T09:32:13.126Z,99.90
2023-03-25T09:35:17.789Z,99.90
2023-03-25T09:38:21.075Z,99.90
2023-03-25T09:41:47.914Z,99.90
2023-03-25T09:45:03.050Z,99.90
2023-03-25T09:48:25.735Z,99.90
2023-03-25T09:51:35.960Z,99.90
2023-03-25T09:54:41.053Z,99.90
2023-03-25T09:57:49.593Z,99.90
2023-03-25T10:00:57.980Z,99.90
2023-03-25T10:04:16.163Z,99.90
2023-03-25T10:07:44.800Z,99.90
2023-03-25T10:10:54.015Z,99.90
2023-03-25T10:14:06.314Z,99.90
2023-03-25T10:17:18.289Z,99.90
2023-03-25T10:20:27.206Z,99.90
2023-03-25T10:23:37.617Z,99.90
2023-03-25T10:26:47.045Z,99.90
2023-03-25T10:29:55.132Z,99.90
2023-03-25T10:33:00.628Z,99.90
2023-03-25T10:36:05.647Z,99.90
2023-03-25T10:39:19.106Z,99.90
2023-03-25T10:42:28.239Z,99.90
2023-03-25T10:45:32.074Z,99.90
2023-03-25T10:48:35.844Z,99.90
2023-03-25T10:51:39.676Z,99.90
2023-03-25T10:54:48.456Z,99.50
2023-03-25T10:57:53.677Z,98.90
2023-03-25T11:00:57.016Z,98.80
2023-03-25T11:04:01.819Z,98.70
2023-03-25T11:07:14.748Z,98.60
2023-03-25T11:10:22.514Z,97.40
2023-03-25T11:13:27.077Z,96.90
2023-03-25T11:16:34.125Z,96.90
2023-03-25T11:19:42.124Z,96.00
2023-03-25T11:22:49.752Z,95.40
2023-03-25T11:25:55.788Z,96.20
2023-03-25T11:29:05.362Z,96.00
2023-03-25T11:32:14.133Z,96.50
2023-03-25T11:35:19.535Z,95.90
2023-03-25T11:38:25.032Z,96.10
2023-03-25T11:41:35.309Z,96.50
2023-03-25T11:44:38.689Z,96.90
2023-03-25T11:47:42.387Z,97.10
2023-03-25T11:50:52.728Z,97.40
2023-03-25T11:53:59.490Z,97.90
2023-03-25T11:57:04.973Z,97.30
2023-03-25T12:00:18.566Z,97.20
2023-03-25T12:03:23.491Z,97.40
2023-03-25T12:06:27.133Z,97.20
2023-03-25T12:09:32.915Z,96.70
2023-03-25T12:12:44.488Z,97.10
2023-03-25T12:15:56.150Z,96.90
2023-03-25T12:19:10.309Z,96.30
2023-03-25T12:22:23.910Z,96.50
2023-03-25T12:25:32.852Z,97.00
2023-03-25T12:29:13.461Z,96.80
2023-03-25T12:32:27.986Z,96.70
2023-03-25T12:35:39.130Z,96.30
2023-03-25T12:38:54.547Z,96.10
2023-03-25T12:42:04.958Z,95.40
2023-03-25T12:45:35.861Z,95.30
2023-03-25T12:48:53.209Z,95.00
2023-03-25T12:52:05.958Z,95.00
2023-03-25T12:55:26.092Z,94.10
2023-03-25T12:58:46.854Z,94.10
2023-03-25T13:01:57.499Z,94.00
2023-03-25T13:05:16.033Z,93.30
2023-03-25T13:08:22.670Z,92.70
2023-03-25T13:11:31.307Z,92.00
2023-03-25T13:14:38.998Z,91.60
2023-03-25T13:17:49.221Z,91.00
2023-03-25T13:21:06.900Z,90.00
2023-03-25T13:24:18.827Z,89.20
2023-03-25T13:27:22.464Z,88.60
2023-03-25T13:30:32.657Z,88.50
2023-03-25T13:33:43.158Z,88.90
2023-03-25T13:36:54.430Z,87.60
2023-03-25T13:40:14.441Z,86.00
2023-03-25T13:43:24.658Z,85.70
2023-03-25T13:46:34.292Z,87.40
2023-03-25T13:49:42.960Z,88.30
2023-03-25T13:52:53.068Z,90.00
2023-03-25T13:56:03.485Z,90.00
2023-03-25T13:59:41.519Z,90.30
2023-03-25T14:03:21.154Z,88.00
2023-03-25T14:06:45.376Z,87.80
2023-03-25T14:10:18.945Z,88.80
2023-03-25T14:13:27.524Z,89.50
2023-03-25T14:16:35.976Z,89.60
2023-03-25T14:19:42.441Z,89.40
2023-03-25T14:22:47.141Z,89.00
2023-03-25T14:25:54.609Z,89.40
2023-03-25T14:28:58.608Z,87.90
2023-03-25T14:32:04.890Z,85.60
2023-03-25T14:35:48.724Z,86.20
2023-03-25T14:38:56.423Z,85.50
2023-03-25T14:42:01.832Z,83.40
2023-03-25T14:45:42.914Z,82.60
2023-03-25T14:48:51.661Z,80.40
2023-03-25T14:51:59.002Z,81.20
2023-03-25T14:55:09.898Z,82.80
2023-03-25T14:58:21.132Z,82.40
2023-03-25T15:01:31.446Z,81.50
2023-03-25T15:04:37.997Z,81.90
2023-03-25T15:07:45.416Z,78.80
2023-03-25T15:11:03.478Z,77.80
2023-03-25T15:14:10.083Z,78.30
2023-03-25T15:17:34.729Z,76.90
2023-03-25T15:20:38.100Z,76.50
2023-03-25T15:23:45.092Z,76.50
2023-03-25T15:26:50.852Z,77.00
2023-03-25T15:30:03.914Z,75.70
2023-03-25T15:33:22.021Z,74.60
2023-03-25T15:36:52.245Z,74.60
2023-03-25T15:40:08.884Z,72.80
2023-03-25T15:43:59.441Z,69.60
2023-03-25T15:47:51.682Z,68.80
2023-03-25T15:51:25.048Z,69.70
2023-03-25T15:54:33.256Z,69.70
2023-03-25T15:57:41.186Z,68.40
2023-03-25T16:00:48.708Z,69.20
2023-03-25T16:03:59.099Z,70.10
2023-03-25T16:07:04.835Z,70.00
2023-03-25T16:10:16.459Z,69.90
2023-03-25T16:13:23.992Z,70.00
2023-03-25T16:16:34.785Z,70.60
2023-03-25T16:19:43.296Z,71.70
2023-03-25T16:22:50.805Z,71.80
2023-03-25T16:25:56.574Z,71.60
2023-03-25T16:29:08.817Z,71.50
2023-03-25T16:32:21.623Z,72.50
2023-03-25T16:35:27.136Z,73.10
2023-03-25T16:38:31.579Z,72.50
2023-03-25T16:41:36.886Z,73.30
2023-03-25T16:44:40.358Z,73.30
2023-03-25T16:47:46.875Z,73.50
2023-03-25T16:50:54.022Z,73.40
2023-03-25T16:53:59.524Z,74.40
2023-03-25T16:57:03.728Z,74.00
2023-03-25T17:00:18.315Z,74.90
2023-03-25T17:03:40.621Z,75.20
2023-03-25T17:06:46.257Z,76.30
2023-03-25T17:09:54.467Z,77.40
2023-03-25T17:13:01.760Z,77.70
2023-03-25T17:16:08.418Z,78.80
2023-03-25T17:19:15.909Z,80.10
2023-03-25T17:22:25.518Z,84.40
2023-03-25T17:25:32.272Z,87.10
2023-03-25T17:28:39.323Z,88.90
2023-03-25T17:31:43.728Z,91.80
2023-03-25T17:34:57.490Z,93.70
2023-03-25T17:38:02.393Z,94.80
2023-03-25T17:41:08.204Z,95.30
2023-03-25T17:44:16.099Z,96.20
2023-03-25T17:47:21.858Z,97.10
2023-03-25T17:50:28.012Z,96.80
2023-03-25T17:53:31.272Z,97.00
2023-03-25T17:56:38.600Z,97.60
2023-03-25T17:59:42.492Z,98.20
2023-03-25T18:02:46.409Z,98.80
2023-03-25T18:05:54.480Z,99.50
2023-03-25T18:08:58.644Z,99.90
2023-03-25T18:12:02.823Z,99.90
2023-03-25T18:15:08.716Z,99.90
2023-03-25T18:18:18.843Z,99.90
2023-03-25T18:21:24.049Z,99.90
2023-03-25T18:24:29.217Z,99.90
2023-03-25T18:27:43.261Z,99.90
2023-03-25T18:30:50.154Z,99.90
2023-03-25T18:33:59.518Z,99.90
2023-03-25T18:37:04.750Z,99.90
2023-03-25T18:40:21.522Z,99.90
2023-03-25T18:43:25.867Z,99.90
2023-03-25T18:46:30.443Z,99.90
2023-03-25T18:49:35.841Z,99.90
2023-03-25T18:52:42.372Z,99.90
2023-03-25T18:55:48.091Z,99.90
2023-03-25T18:58:52.375Z,99.90
2023-03-25T19:01:56.962Z,99.90
2023-03-25T19:05:01.796Z,99.90
2023-03-25T19:08:09.157Z,99.90
2023-03-25T19:11:20.747Z,99.90
2023-03-25T19:14:26.334Z,99.90
2023-03-25T19:17:31.058Z,99.90
2023-03-25T19:20:37.792Z,99.90
2023-03-25T19:23:44.889Z,99.90
2023-03-25T19:26:49.073Z,99.90
2023-03-25T19:29:54.843Z,99.90
2023-03-25T19:32:59.128Z,99.90
2023-03-25T19:36:06.939Z,99.90
2023-03-25T19:39:12.943Z,99.90
2023-03-25T19:42:17.250Z,99.90
2023-03-25T19:45:22.317Z,99.90
2023-03-25T19:48:26.876Z,99.90
2023-03-25T19:51:30.890Z,99.90
2023-03-25T19:54:36.758Z,99.90
2023-03-25T19:57:44.746Z,99.90
2023-03-25T20:00:49.602Z,99.90
2023-03-25T20:03:54.550Z,99.90
2023-03-25T20:06:58.607Z,99.90
2023-03-25T20:10:18.587Z,99.90
2023-03-25T20:13:23.893Z,99.90
2023-03-25T20:16:28.645Z,99.90
2023-03-25T20:19:35.528Z,99.90
2023-03-25T20:22:41.389Z,99.90
2023-03-25T20:25:49.308Z,99.90
2023-03-25T20:28:54.001Z,99.90
2023-03-25T20:31:58.333Z,99.90
2023-03-25T20:35:03.555Z,99.90
2023-03-25T20:38:08.934Z,99.90
2023-03-25T20:41:19.831Z,99.90
2023-03-25T20:44:24.551Z,99.90
2023-03-25T20:47:29.834Z,99.90
2023-03-25T20:50:35.213Z,99.90
2023-03-25T20:53:41.988Z,99.90
2023-03-25T20:56:48.173Z,99.90
2023-03-25T20:59:54.659Z,99.90
2023-03-25T21:02:58.575Z,99.90
2023-03-25T21:06:13.422Z,99.90
2023-03-25T21:09:26.226Z,99.90
2023-03-25T21:12:42.549Z,99.90
2023-03-25T21:15:48.092Z,99.90
2023-03-25T21:18:51.936Z,99.90
2023-03-25T21:21:58.846Z,99.90
2023-03-25T21:25:03.246Z,99.90
2023-03-25T21:28:08.684Z,99.90
2023-03-25T21:31:17.028Z,99.90
2023-03-25T21:34:22.440Z,99.90
2023-03-25T21:37:27.104Z,99.90
2023-03-25T21:40:39.505Z,99.90
2023-03-25T21:43:45.806Z,99.90
2023-03-25T21:46:49.452Z,99.90
2023-03-25T21:49:57.124Z,99.90
2023-03-25T21:53:03.298Z,99.90
2023-03-25T21:56:10.352Z,99.90
2023-03-25T21:59:15.531Z,99.90
2023-03-25T22:02:21.074Z,99.90
2023-03-25T22:05:31.094Z,99.90
2023-03-25T22:08:34.568Z,99.90
2023-03-25T22:11:38.603Z,99.90
2023-03-25T22:14:43.132Z,99.90
2023-03-25T22:17:46.340Z,99.90
2023-03-25T22:20:49.533Z,99.90
2023-03-25T22:23:55.831Z,99.90
2023-03-25T22:26:59.028Z,99.90
2023-03-25T22:30:03.583Z,99.90
2023-03-25T22:33:07.471Z,99.90
2023-03-25T22:36:13.165Z,99.90
2023-03-25T22:39:18.488Z,99.90
2023-03-25T22:42:21.629Z,99.90
2023-03-25T22:45:26.178Z,99.90
2023-03-25T22:48:29.493Z,99.90
2023-03-25T22:51:32.658Z,99.90
2023-03-25T22:54:36.074Z,99.90
2023-03-25T22:57:39.258Z,99.90
2023-03-25T23:00:43.849Z,99.90
2023-03-25T23:03:47.154Z,99.90
2023-03-25T23:07:04.736Z,99.90
2023-03-25T23:10:13.675Z,99.90
2023-03-25T23:13:17.147Z,99.90
2023-03-25T23:16:23.374Z,99.90
2023-03-25T23:19:26.593Z,99.90
2023-03-25T23:22:29.810Z,99.90
2023-03-25T23:25:32.949Z,99.90
2023-03-25T23:28:38.570Z,99.90
2023-03-25T23:31:44.869Z,99.90
2023-03-25T23:34:48.628Z,99.90
2023-03-25T23:37:53.481Z,99.90
2023-03-25T23:41:03.452Z,99.90
2023-03-25T23:44:07.241Z,99.90
2023-03-25T23:47:11.826Z,99.90
2023-03-25T23:50:18.524Z,99.90
2023-03-25T23:53:21.890Z,99.90
2023-03-25T23:56:25.973Z,99.90
2023-03-25T23:59:29.350Z,99.90
